createdAt,value
2023-02-09T00:01:34.573Z,103326.66
2023-02-09T00:04:02.094Z,103321.55
2023-02-09T00:06:29.958Z,103316.39
2023-02-09T00:08:57.875Z,103316.88
2023-02-09T00:11:47.654Z,103317.35
2023-02-09T00:14:16.487Z,103314.40
2023-02-09T00:16:45.246Z,103317.55
2023-02-09T00:19:13.053Z,103311.91
2023-02-09T00:21:40.129Z,103315.52
2023-02-09T00:24:07.330Z,103316.42
2023-02-09T00:26:34.117Z,103316.91
2023-02-09T00:29:00.926Z,103316.64
2023-02-09T00:31:27.836Z,103310.90
2023-02-09T00:33:54.842Z,103316.56
2023-02-09T00:36:21.734Z,103312.84
2023-02-09T00:38:50.837Z,103310.81
2023-02-09T00:41:17.815Z,103310.46
2023-02-09T00:43:45.673Z,103307.50
2023-02-09T00:46:14.492Z,103305.61
2023-02-09T00:48:41.983Z,103302.06
2023-02-09T00:51:08.780Z,103300.33
2023-02-09T00:53:35.979Z,103294.12
2023-02-09T00:56:02.832Z,103286.35
2023-02-09T00:58:29.795Z,103283.15
2023-02-09T01:00:56.802Z,103285.67
2023-02-09T01:03:23.659Z,103289.30
2023-02-09T01:05:50.501Z,103285.35
2023-02-09T01:08:17.693Z,103285.37
2023-02-09T01:10:46.810Z,103289.96
2023-02-09T01:13:14.683Z,103287.60
2023-02-09T01:15:42.153Z,103288.15
2023-02-09T01:18:09.310Z,103283.89
2023-02-09T01:20:36.530Z,103282.33
2023-02-09T01:23:03.647Z,103280.27
2023-02-09T01:25:30.841Z,103278.80
2023-02-09T01:27:59.315Z,103275.35
2023-02-09T01:30:26.671Z,103272.84
2023-02-09T01:32:56.165Z,103265.67
2023-02-09T01:35:23.153Z,103265.79
2023-02-09T01:37:49.983Z,103266.48
2023-02-09T01:40:17.152Z,103266.77
2023-02-09T01:42:44.585Z,103259.23
2023-02-09T01:45:24.558Z,103257.59
2023-02-09T01:47:56.274Z,103258.17
2023-02-09T01:50:29.430Z,103258.98
2023-02-09T01:52:57.522Z,103261.25
2023-02-09T01:55:26.353Z,103254.85
2023-02-09T01:58:14.330Z,103253.27
2023-02-09T02:00:41.237Z,103247.19
2023-02-09T02:03:11.587Z,103238.59
2023-02-09T02:05:40.799Z,103232.41
2023-02-09T02:08:17.680Z,103233.18
2023-02-09T02:10:44.775Z,103232.50
2023-02-09T02:13:12.111Z,103236.65
2023-02-09T02:15:57.310Z,103236.64
2023-02-09T02:19:14.829Z,103231.48
2023-02-09T02:21:56.497Z,103236.52
2023-02-09T02:25:00.874Z,103245.00
2023-02-09T02:27:36.073Z,103244.87
2023-02-09T02:30:34.693Z,103247.13
2023-02-09T02:33:26.192Z,103246.30
2023-02-09T02:36:00.742Z,103249.48
2023-02-09T02:38:38.606Z,103241.77
2023-02-09T02:41:17.500Z,103242.08
2023-02-09T02:43:59.551Z,103240.05
2023-02-09T02:46:41.582Z,103232.55
2023-02-09T02:49:15.284Z,103231.55
2023-02-09T02:51:43.460Z,103227.67
2023-02-09T02:54:20.513Z,103229.14
2023-02-09T02:56:50.672Z,103233.30
2023-02-09T02:59:20.744Z,103234.80
2023-02-09T03:02:21.877Z,103232.70
2023-02-09T03:04:52.289Z,103231.33
2023-02-09T03:07:19.151Z,103230.68
2023-02-09T03:09:53.695Z,103232.80
2023-02-09T03:12:47.534Z,103228.94
2023-02-09T03:15:31.625Z,103229.88
2023-02-09T03:17:58.540Z,103228.52
2023-02-09T03:20:42.339Z,103223.11
2023-02-09T03:23:14.728Z,103216.89
2023-02-09T03:25:44.288Z,103214.24
2023-02-09T03:28:16.801Z,103215.35
2023-02-09T03:30:44.830Z,103215.79
2023-02-09T03:33:26.385Z,103217.65
2023-02-09T03:35:55.194Z,103218.41
2023-02-09T03:38:22.281Z,103213.22
2023-02-09T03:40:49.662Z,103216.63
2023-02-09T03:43:16.758Z,103211.91
2023-02-09T03:45:43.804Z,103206.61
2023-02-09T03:48:10.860Z,103205.42
2023-02-09T03:50:38.282Z,103208.80
2023-02-09T03:53:06.613Z,103208.55
2023-02-09T03:55:33.634Z,103207.51
2023-02-09T03:58:00.399Z,103208.70
2023-02-09T04:00:27.381Z,103208.87
2023-02-09T04:02:54.248Z,103210.93
2023-02-09T04:05:22.443Z,103212.04
2023-02-09T04:07:55.669Z,103212.05
2023-02-09T04:10:22.530Z,103215.27
2023-02-09T04:12:50.055Z,103216.58
2023-02-09T04:15:17.958Z,103215.67
2023-02-09T04:17:44.836Z,103215.95
2023-02-09T04:20:11.658Z,103216.77
2023-02-09T04:22:39.609Z,103218.85
2023-02-09T04:25:06.723Z,103216.18
2023-02-09T04:27:34.551Z,103209.64
2023-02-09T04:30:01.323Z,103206.42
2023-02-09T04:32:28.175Z,103208.63
2023-02-09T04:34:55.007Z,103210.59
2023-02-09T04:37:21.776Z,103205.61
2023-02-09T04:39:48.704Z,103204.40
2023-02-09T04:42:15.556Z,103208.97
2023-02-09T04:44:43.164Z,103204.58
2023-02-09T04:47:10.031Z,103199.96
2023-02-09T04:49:37.321Z,103195.91
2023-02-09T04:52:04.232Z,103190.02
2023-02-09T04:54:31.154Z,103186.59
2023-02-09T04:57:18.123Z,103182.56
2023-02-09T04:59:45.117Z,103178.93
2023-02-09T05:02:11.942Z,103177.05
2023-02-09T05:04:38.699Z,103176.32
2023-02-09T05:07:09.794Z,103174.63
2023-02-09T05:09:37.311Z,103170.71
2023-02-09T05:12:04.476Z,103169.91
2023-02-09T05:14:31.805Z,103176.66
2023-02-09T05:16:59.270Z,103178.59
2023-02-09T05:19:26.101Z,103174.46
2023-02-09T05:21:52.926Z,103174.97
2023-02-09T05:24:19.727Z,103171.63
2023-02-09T05:26:46.522Z,103174.90
2023-02-09T05:29:13.394Z,103174.61
2023-02-09T05:31:40.664Z,103179.02
2023-02-09T05:34:07.601Z,103177.70
2023-02-09T05:36:34.638Z,103174.55
2023-02-09T05:39:01.746Z,103174.64
2023-02-09T05:41:47.464Z,103165.87
2023-02-09T05:44:14.310Z,103160.59
2023-02-09T05:46:41.423Z,103160.25
2023-02-09T05:49:09.193Z,103161.14
2023-02-09T05:51:36.226Z,103159.39
2023-02-09T05:54:03.253Z,103155.27
2023-02-09T05:56:30.397Z,103150.25
2023-02-09T05:58:57.326Z,103145.94
2023-02-09T06:01:24.207Z,103148.27
2023-02-09T06:03:51.172Z,103148.88
2023-02-09T06:06:18.008Z,103147.80
2023-02-09T06:08:45.288Z,103149.11
2023-02-09T06:11:14.592Z,103147.38
2023-02-09T06:13:41.604Z,103145.14
2023-02-09T06:16:08.785Z,103148.36
2023-02-09T06:18:35.820Z,103150.05
2023-02-09T06:21:03.062Z,103148.05
2023-02-09T06:23:30.368Z,103143.14
2023-02-09T06:25:57.185Z,103136.45
2023-02-09T06:28:24.460Z,103137.17
2023-02-09T06:30:52.740Z,103139.55
2023-02-09T06:33:19.797Z,103141.63
2023-02-09T06:35:52.296Z,103148.13
2023-02-09T06:38:19.335Z,103147.55
2023-02-09T06:40:47.013Z,103145.62
2023-02-09T06:43:14.234Z,103147.80
2023-02-09T06:45:41.289Z,103144.34
2023-02-09T06:48:08.256Z,103142.45
2023-02-09T06:50:35.897Z,103143.01
2023-02-09T06:53:02.910Z,103140.37
2023-02-09T06:55:29.919Z,103140.11
2023-02-09T06:57:56.825Z,103144.44
2023-02-09T07:00:23.602Z,103136.98
2023-02-09T07:02:52.626Z,103133.97
2023-02-09T07:05:20.601Z,103133.05
2023-02-09T07:07:47.444Z,103133.10
2023-02-09T07:10:15.848Z,103135.92
2023-02-09T07:12:43.306Z,103133.00
2023-02-09T07:15:10.957Z,103132.39
2023-02-09T07:17:39.267Z,103132.44
2023-02-09T07:20:08.514Z,103138.09
2023-02-09T07:22:35.430Z,103135.00
2023-02-09T07:25:02.277Z,103132.83
2023-02-09T07:27:29.374Z,103134.48
2023-02-09T07:29:56.483Z,103136.56
2023-02-09T07:32:23.987Z,103138.82
2023-02-09T07:34:50.808Z,103135.60
2023-02-09T07:37:17.910Z,103131.58
2023-02-09T07:39:44.789Z,103125.29
2023-02-09T07:42:11.903Z,103119.29
2023-02-09T07:44:48.864Z,103116.50
2023-02-09T07:47:15.646Z,103118.15
2023-02-09T07:49:42.611Z,103116.45
2023-02-09T07:52:09.499Z,103115.02
2023-02-09T07:54:37.022Z,103116.02
2023-02-09T07:57:03.811Z,103113.35
2023-02-09T07:59:30.822Z,103111.61
2023-02-09T08:01:57.784Z,103109.89
2023-02-09T08:04:24.578Z,103111.92
2023-02-09T08:06:52.728Z,103108.84
2023-02-09T08:09:19.574Z,103108.58
2023-02-09T08:12:02.127Z,103109.08
2023-02-09T08:14:36.079Z,103111.13
2023-02-09T08:17:20.886Z,103112.23
2023-02-09T08:20:15.304Z,103102.99
2023-02-09T08:22:46.098Z,103105.55
2023-02-09T08:25:19.092Z,103103.66
2023-02-09T08:27:46.118Z,103104.67
2023-02-09T08:30:14.153Z,103098.90
2023-02-09T08:32:41.572Z,103095.80
2023-02-09T08:35:08.462Z,103093.92
2023-02-09T08:37:36.428Z,103091.55
2023-02-09T08:40:03.457Z,103087.49
2023-02-09T08:42:30.891Z,103083.94
2023-02-09T08:44:58.711Z,103084.11
2023-02-09T08:47:25.532Z,103086.02
2023-02-09T08:49:52.326Z,103085.41
2023-02-09T08:52:19.504Z,103085.89
2023-02-09T08:54:46.519Z,103085.73
2023-02-09T08:57:13.449Z,103084.95
2023-02-09T08:59:40.253Z,103085.70
2023-02-09T09:02:07.126Z,103085.98
2023-02-09T09:04:33.995Z,103080.23
2023-02-09T09:07:00.812Z,103075.63
2023-02-09T09:09:27.598Z,103067.01
2023-02-09T09:11:54.393Z,103062.22
2023-02-09T09:14:21.750Z,103059.59
2023-02-09T09:16:49.248Z,103056.48
2023-02-09T09:19:16.044Z,103050.98
2023-02-09T09:21:45.783Z,103046.05
2023-02-09T09:24:13.441Z,103045.44
2023-02-09T09:26:40.306Z,103044.23
2023-02-09T09:29:07.177Z,103037.28
2023-02-09T09:31:34.378Z,103032.30
2023-02-09T09:34:03.381Z,103027.18
2023-02-09T09:36:30.301Z,103023.52
2023-02-09T09:38:57.784Z,103014.71
2023-02-09T09:41:34.019Z,103012.31
2023-02-09T09:44:00.922Z,103009.07
2023-02-09T09:46:48.204Z,103006.35
2023-02-09T09:49:23.820Z,103002.95
2023-02-09T09:52:12.471Z,102997.15
2023-02-09T09:54:40.211Z,102996.15
2023-02-09T09:57:19.474Z,102998.16
2023-02-09T09:59:46.346Z,102991.84
2023-02-09T10:02:32.511Z,102991.45
2023-02-09T10:05:20.799Z,102984.64
2023-02-09T10:08:31.338Z,102972.33
2023-02-09T10:11:35.760Z,102965.61
2023-02-09T10:14:03.168Z,102961.56
2023-02-09T10:16:33.916Z,102961.10
2023-02-09T10:19:02.482Z,102957.17
2023-02-09T10:21:32.490Z,102951.63
2023-02-09T10:23:59.518Z,102944.33
2023-02-09T10:26:31.704Z,102939.64
2023-02-09T10:29:21.060Z,102934.13
2023-02-09T10:31:54.212Z,102934.32
2023-02-09T10:34:33.882Z,102929.18
2023-02-09T10:37:29.080Z,102927.82
2023-02-09T10:40:23.369Z,102923.71
2023-02-09T10:42:55.713Z,102922.24
2023-02-09T10:45:43.860Z,102920.14
2023-02-09T10:48:10.864Z,102918.89
2023-02-09T10:50:59.753Z,102914.41
2023-02-09T10:53:33.206Z,102909.98
2023-02-09T10:56:04.580Z,102902.12
2023-02-09T10:58:33.584Z,102899.11
2023-02-09T11:01:16.782Z,102894.67
2023-02-09T11:04:19.961Z,102895.04
2023-02-09T11:07:15.393Z,102896.09
2023-02-09T11:09:48.354Z,102884.33
2023-02-09T11:12:15.190Z,102884.63
2023-02-09T11:14:46.194Z,102878.31
2023-02-09T11:17:17.010Z,102868.75
2023-02-09T11:19:53.317Z,102866.39
2023-02-09T11:22:39.044Z,102860.46
2023-02-09T11:25:24.853Z,102861.05
2023-02-09T11:28:18.284Z,102857.64
2023-02-09T11:31:29.983Z,102853.37
2023-02-09T11:34:19.306Z,102845.83
2023-02-09T11:37:16.927Z,102843.59
2023-02-09T11:39:49.414Z,102836.55
2023-02-09T11:42:38.679Z,102843.70
2023-02-09T11:45:10.595Z,102842.86
2023-02-09T11:47:46.931Z,102837.30
2023-02-09T11:50:40.158Z,102833.35
2023-02-09T11:53:38.169Z,102830.97
2023-02-09T11:56:07.937Z,102821.55
2023-02-09T11:58:53.183Z,102819.84
2023-02-09T12:01:35.551Z,102814.09
2023-02-09T12:04:17.753Z,102811.33
2023-02-09T12:06:49.445Z,102807.13
2023-02-09T12:09:25.431Z,102802.30
2023-02-09T12:12:14.052Z,102799.40
2023-02-09T12:14:41.218Z,102798.58
2023-02-09T12:17:33.250Z,102797.58
2023-02-09T12:20:00.612Z,102802.77
2023-02-09T12:22:43.119Z,102801.33
2023-02-09T12:25:25.021Z,102806.58
2023-02-09T12:28:35.408Z,102806.81
2023-02-09T12:31:08.056Z,102807.79
2023-02-09T12:33:36.963Z,102805.79
2023-02-09T12:36:09.988Z,102803.40
2023-02-09T12:38:50.483Z,102798.90
2023-02-09T12:41:21.692Z,102794.96
2023-02-09T12:43:48.923Z,102793.30
2023-02-09T12:46:31.277Z,102795.60
2023-02-09T12:49:15.185Z,102786.25
2023-02-09T12:51:54.529Z,102782.83
2023-02-09T12:54:43.393Z,102781.08
2023-02-09T12:57:19.496Z,102774.98
2023-02-09T12:59:57.670Z,102776.23
2023-02-09T13:02:49.922Z,102775.36
2023-02-09T13:05:17.573Z,102776.52
2023-02-09T13:08:06.206Z,102774.00
2023-02-09T13:10:35.832Z,102778.70
2023-02-09T13:13:03.632Z,102775.27
2023-02-09T13:15:43.551Z,102773.92
2023-02-09T13:18:36.781Z,102771.04
2023-02-09T13:21:27.322Z,102770.19
2023-02-09T13:24:14.368Z,102767.39
2023-02-09T13:26:57.697Z,102769.27
2023-02-09T13:29:29.371Z,102766.88
2023-02-09T13:32:22.857Z,102760.09
2023-02-09T13:35:27.318Z,102757.11
2023-02-09T13:38:02.790Z,102752.98
2023-02-09T13:40:31.354Z,102749.92
2023-02-09T13:43:24.246Z,102747.81
2023-02-09T13:45:52.909Z,102750.10
2023-02-09T13:48:23.828Z,102750.04
2023-02-09T13:50:51.684Z,102749.28
2023-02-09T13:53:19.496Z,102752.03
2023-02-09T13:55:47.793Z,102746.15
2023-02-09T13:58:21.997Z,102744.59
2023-02-09T14:00:52.184Z,102747.75
2023-02-09T14:03:19.013Z,102744.73
2023-02-09T14:06:00.506Z,102745.73
2023-02-09T14:08:28.581Z,102745.41
2023-02-09T14:11:01.995Z,102743.80
2023-02-09T14:13:34.874Z,102738.09
2023-02-09T14:16:08.272Z,102741.13
2023-02-09T14:18:47.802Z,102735.76
2023-02-09T14:21:22.659Z,102734.64
2023-02-09T14:24:03.970Z,102732.80
2023-02-09T14:26:48.318Z,102732.97
2023-02-09T14:29:24.865Z,102729.73
2023-02-09T14:32:00.159Z,102731.02
2023-02-09T14:34:37.525Z,102728.24
2023-02-09T14:37:11.113Z,102726.89
2023-02-09T14:40:00.655Z,102725.06
2023-02-09T14:42:28.608Z,102722.33
2023-02-09T14:44:58.672Z,102725.45
2023-02-09T14:47:34.869Z,102725.41
2023-02-09T14:50:02.155Z,102730.22
2023-02-09T14:52:32.145Z,102728.33
2023-02-09T15:07:19.276Z,102730.28
2023-02-09T15:09:48.477Z,102728.69
2023-02-09T15:12:27.918Z,102725.48
2023-02-09T15:14:58.860Z,102727.45
2023-02-09T15:17:29.320Z,102727.65
2023-02-09T15:19:58.136Z,102727.59
2023-02-09T15:22:26.978Z,102727.36
2023-02-09T15:24:57.836Z,102726.43
2023-02-09T15:27:40.308Z,102720.41
2023-02-09T15:30:17.329Z,102728.27
2023-02-09T15:32:45.679Z,102729.61
2023-02-09T15:35:18.297Z,102730.88
2023-02-09T15:37:48.205Z,102732.85
2023-02-09T15:40:43.961Z,102728.63
2023-02-09T15:43:36.589Z,102730.88
2023-02-09T15:46:23.938Z,102728.22
2023-02-09T15:48:52.446Z,102726.84
2023-02-09T15:51:21.380Z,102728.11
2023-02-09T15:53:49.564Z,102731.91
2023-02-09T15:56:19.067Z,102733.88
2023-02-09T15:58:57.431Z,102740.58
2023-02-09T16:01:26.665Z,102738.45
2023-02-09T16:04:02.675Z,102733.29
2023-02-09T16:06:38.680Z,102732.08
2023-02-09T16:09:16.049Z,102730.20
2023-02-09T16:11:45.014Z,102733.86
2023-02-09T16:14:20.734Z,102725.86
2023-02-09T16:16:49.639Z,102724.00
2023-02-09T16:19:19.005Z,102720.89
2023-02-09T16:21:50.142Z,102722.96
2023-02-09T16:24:31.502Z,102721.71
2023-02-09T16:27:04.979Z,102722.25
2023-02-09T16:29:33.434Z,102722.14
2023-02-09T16:32:01.721Z,102724.09
2023-02-09T16:34:30.260Z,102722.77
2023-02-09T16:36:58.865Z,102719.69
2023-02-09T16:39:27.131Z,102716.30
2023-02-09T16:41:57.135Z,102720.66
2023-02-09T16:44:29.434Z,102721.68
2023-02-09T16:46:57.989Z,102718.73
2023-02-09T16:49:34.309Z,102719.58
2023-02-09T16:52:05.740Z,102721.55
2023-02-09T16:54:40.385Z,102718.58
2023-02-09T16:57:13.600Z,102718.48
2023-02-09T16:59:41.924Z,102718.71
2023-02-09T17:02:26.094Z,102717.80
2023-02-09T17:04:57.096Z,102716.13
2023-02-09T17:07:33.002Z,102715.66
2023-02-09T17:10:14.325Z,102714.86
2023-02-09T17:12:42.522Z,102711.89
2023-02-09T17:15:28.965Z,102709.95
2023-02-09T17:18:02.253Z,102703.64
2023-02-09T17:20:36.345Z,102702.70
2023-02-09T17:23:05.183Z,102702.89
2023-02-09T17:25:34.630Z,102701.88
2023-02-09T17:28:03.046Z,102699.52
2023-02-09T17:30:32.394Z,102699.54
2023-02-09T17:33:03.219Z,102702.67
2023-02-09T17:36:17.720Z,102700.94
2023-02-09T17:38:28.061Z,102699.45
2023-02-09T17:40:56.896Z,102700.14
2023-02-09T17:43:25.464Z,102698.84
2023-02-09T17:45:54.453Z,102700.56
2023-02-09T17:48:23.273Z,102699.52
2023-02-09T17:50:57.888Z,102694.88
2023-02-09T17:53:28.527Z,102694.09
2023-02-09T17:55:56.918Z,102690.11
2023-02-09T17:58:25.235Z,102691.52
2023-02-09T18:00:56.764Z,102693.27
2023-02-09T18:03:26.148Z,102694.94
2023-02-09T18:05:58.736Z,102695.15
2023-02-09T18:08:27.601Z,102693.46
2023-02-09T18:10:58.878Z,102692.29
2023-02-09T18:13:27.437Z,102693.02
2023-02-09T18:15:56.630Z,102691.11
2023-02-09T18:18:24.953Z,102691.14
2023-02-09T18:20:53.269Z,102689.54
2023-02-09T18:23:23.214Z,102688.66
2023-02-09T18:25:51.608Z,102688.60
2023-02-09T18:28:20.745Z,102690.05
2023-02-09T18:30:49.335Z,102684.98
2023-02-09T18:33:18.416Z,102685.30
2023-02-09T18:35:46.866Z,102685.09
2023-02-09T18:38:16.087Z,102690.42
2023-02-09T18:40:44.342Z,102690.08
2023-02-09T18:43:14.946Z,102687.77
2023-02-09T18:45:43.413Z,102684.77
2023-02-09T18:48:12.127Z,102682.27
2023-02-09T18:50:40.729Z,102679.09
2023-02-09T18:53:11.014Z,102685.28
2023-02-09T18:55:39.565Z,102685.73
2023-02-09T18:58:11.683Z,102678.20
2023-02-09T19:00:40.044Z,102676.02
2023-02-09T19:03:08.579Z,102672.15
2023-02-09T19:05:36.970Z,102670.49
2023-02-09T19:08:07.558Z,102670.73
2023-02-09T19:10:36.443Z,102665.08
2023-02-09T19:13:04.820Z,102659.59
2023-02-09T19:15:34.535Z,102660.48
2023-02-09T19:18:04.431Z,102659.58
2023-02-09T19:20:34.377Z,102656.71
2023-02-09T19:23:03.995Z,102655.38
2023-02-09T19:25:33.475Z,102651.02
2023-02-09T19:28:01.988Z,102649.05
2023-02-09T19:30:30.695Z,102645.23
2023-02-09T19:33:00.287Z,102641.24
2023-02-09T19:35:29.560Z,102640.36
2023-02-09T19:37:58.576Z,102638.65
2023-02-09T19:40:36.967Z,102637.98
2023-02-09T19:43:06.351Z,102638.27
2023-02-09T19:45:37.956Z,102638.04
2023-02-09T19:48:06.855Z,102639.82
2023-02-09T19:50:37.081Z,102640.11
2023-02-09T19:53:06.350Z,102636.16
2023-02-09T19:55:36.549Z,102634.58
2023-02-09T19:58:04.920Z,102629.55
2023-02-09T20:00:34.612Z,102628.86
2023-02-09T20:03:02.957Z,102624.92
2023-02-09T20:05:31.986Z,102620.67
2023-02-09T20:08:00.260Z,102616.96
2023-02-09T20:10:28.663Z,102611.66
2023-02-09T20:12:56.997Z,102609.85
2023-02-09T20:15:26.786Z,102609.55
2023-02-09T20:17:55.255Z,102605.98
2023-02-09T20:20:24.059Z,102603.55
2023-02-09T20:22:52.495Z,102600.36
2023-02-09T20:25:20.961Z,102599.91
2023-02-09T20:27:50.458Z,102595.30
2023-02-09T20:30:19.031Z,102589.46
2023-02-09T20:32:50.715Z,102586.89
2023-02-09T20:35:20.106Z,102583.05
2023-02-09T20:37:48.385Z,102579.45
2023-02-09T20:40:17.176Z,102578.48
2023-02-09T20:43:05.045Z,102575.36
2023-02-09T20:45:52.386Z,102572.02
2023-02-09T20:48:20.688Z,102571.85
2023-02-09T20:50:49.654Z,102570.85
2023-02-09T20:53:19.241Z,102568.16
2023-02-09T20:55:50.641Z,102565.63
2023-02-09T20:58:19.502Z,102562.86
2023-02-09T21:00:48.135Z,102560.50
2023-02-09T21:03:17.128Z,102556.25
2023-02-09T21:08:37.722Z,102556.69
2023-02-09T21:11:09.287Z,102553.03
2023-02-09T21:13:41.231Z,102552.80
2023-02-09T21:16:09.827Z,102552.48
2023-02-09T21:18:38.902Z,102554.42
2023-02-09T21:21:07.991Z,102557.46
2023-02-09T21:23:36.672Z,102558.93
2023-02-09T21:26:06.776Z,102560.16
2023-02-09T21:28:36.403Z,102554.61
2023-02-09T21:31:17.090Z,102551.50
2023-02-09T21:33:45.394Z,102556.70
2023-02-09T21:36:13.736Z,102556.06
2023-02-09T21:38:42.268Z,102554.80
2023-02-09T21:41:31.664Z,102556.91
2023-02-09T21:43:59.964Z,102550.85
2023-02-09T21:46:28.582Z,102549.35
2023-02-09T21:48:59.828Z,102547.99
2023-02-09T21:51:28.358Z,102549.95
2023-02-09T21:53:56.672Z,102546.75
2023-02-09T21:56:25.033Z,102546.48
2023-02-09T21:58:54.410Z,102549.48
2023-02-09T22:01:22.651Z,102546.42
2023-02-09T22:03:57.473Z,102542.86
2023-02-09T22:06:26.366Z,102538.69
2023-02-09T22:08:54.580Z,102541.64
2023-02-09T22:11:23.239Z,102542.95
2023-02-09T22:13:51.526Z,102536.11
2023-02-09T22:16:21.073Z,102533.73
2023-02-09T22:18:50.056Z,102532.55
2023-02-09T22:21:20.636Z,102526.77
2023-02-09T22:23:49.769Z,102523.98
2023-02-09T22:26:18.830Z,102519.13
2023-02-09T22:28:47.376Z,102517.61
2023-02-09T22:31:17.576Z,102516.08
2023-02-09T22:33:45.932Z,102513.47
2023-02-09T22:36:18.192Z,102515.00
2023-02-09T22:38:46.588Z,102513.56
2023-02-09T22:41:22.881Z,102510.20
2023-02-09T22:43:52.961Z,102507.21
2023-02-09T22:46:22.394Z,102507.74
2023-02-09T22:48:54.912Z,102506.45
2023-02-09T22:51:24.239Z,102500.16
2023-02-09T22:53:52.990Z,102494.19
2023-02-09T22:56:21.239Z,102493.16
2023-02-09T22:58:49.806Z,102489.27
2023-02-09T23:01:18.133Z,102485.41
2023-02-09T23:03:46.471Z,102478.79
2023-02-09T23:06:17.789Z,102481.91
2023-02-09T23:08:46.599Z,102479.39
2023-02-09T23:11:17.138Z,102482.06
2023-02-09T23:13:45.475Z,102480.86
2023-02-09T23:16:24.259Z,102480.11
2023-02-09T23:18:59.938Z,102482.95
2023-02-09T23:21:36.576Z,102482.91
2023-02-09T23:24:06.782Z,102480.48
2023-02-09T23:26:35.728Z,102480.52
2023-02-09T23:29:05.842Z,102478.55
2023-02-09T23:31:34.644Z,102473.82
2023-02-09T23:34:02.939Z,102469.73
2023-02-09T23:36:33.097Z,102466.34
2023-02-09T23:39:03.229Z,102466.46
2023-02-09T23:41:34.794Z,102469.30
2023-02-09T23:44:04.800Z,102465.55
2023-02-09T23:46:33.207Z,102468.21
2023-02-09T23:49:01.740Z,102463.17
2023-02-09T23:51:34.743Z,102464.07
2023-02-09T23:54:04.670Z,102465.09
2023-02-09T23:56:37.395Z,102465.75
2023-02-09T23:59:07.768Z,102458.15
